createdAt,value
2019-04-04T00:28:29.808Z,65.40
2019-04-04T03:43:30.360Z,59.80
2019-04-04T04:18:21.788Z,61.60
2019-04-04T04:23:58.240Z,60.60
2019-04-04T04:55:46.380Z,62.20
2019-04-04T05:01:17.993Z,61.70
2019-04-04T05:50:05.754Z,60.00
2019-04-04T05:59:23.570Z,62.20
2019-04-04T06:04:55.339Z,61.00
2019-04-04T06:13:24.997Z,60.20
2019-04-04T06:15:59.380Z,61.10
2019-04-04T06:18:34.397Z,61.20
2019-04-04T06:21:03.317Z,61.80
2019-04-04T06:23:32.198Z,62.10
2019-04-04T06:26:38.168Z,62.00
2019-04-04T06:29:56.391Z,62.00
2019-04-04T06:32:45.190Z,62.10
2019-04-04T06:35:15.572Z,62.60
2019-04-04T06:37:46.192Z,63.40
2019-04-04T07:33:23.659Z,77.90
2019-04-04T07:35:52.680Z,77.80
2019-04-04T07:38:50.937Z,75.20
2019-04-04T07:41:33.197Z,74.60
2019-04-04T07:44:02.107Z,74.20
2019-04-04T07:46:32.309Z,74.80
2019-04-04T07:49:07.157Z,74.30
2019-04-04T07:51:46.649Z,73.90
2019-04-04T07:54:18.958Z,74.60
2019-04-04T07:56:54.209Z,74.60
2019-04-04T07:59:31.338Z,74.60
2019-04-04T08:02:00.927Z,72.30
2019-04-04T08:04:31.385Z,73.10
2019-04-04T08:07:18.892Z,70.70
2019-04-04T08:09:47.989Z,69.80
2019-04-04T08:12:16.907Z,70.80
2019-04-04T08:14:50.102Z,69.20
2019-04-04T08:17:20.503Z,70.60
2019-04-04T08:19:59.617Z,69.90
2019-04-04T08:22:24.946Z,68.60
2019-04-04T08:24:56.162Z,68.50
2019-04-04T08:27:25.824Z,69.30
2019-04-04T08:29:55.602Z,69.70
2019-04-04T08:32:24.577Z,70.20
2019-04-04T08:35:03.881Z,71.10
2019-04-04T08:37:38.093Z,70.80
2019-04-04T08:40:46.103Z,70.70
2019-04-04T08:46:22.153Z,68.20
2019-04-04T08:48:52.629Z,68.80
2019-04-04T08:51:23.526Z,70.90
2019-04-04T08:53:53.083Z,70.80
2019-04-04T08:59:11.236Z,70.30
2019-04-04T09:01:45.706Z,70.30
2019-04-04T09:04:14.885Z,68.90
2019-04-04T09:06:46.357Z,68.70
2019-04-04T09:09:27.708Z,68.40
2019-04-04T09:11:58.487Z,67.00
2019-04-04T09:14:28.296Z,68.90
2019-04-04T09:16:57.288Z,68.10
2019-04-04T09:19:30.437Z,68.20
2019-04-04T09:22:00.100Z,65.60
2019-04-04T09:24:28.925Z,66.40
2019-04-04T09:27:11.916Z,67.70
2019-04-04T09:29:40.841Z,66.20
2019-04-04T09:32:10.001Z,67.60
2019-04-04T09:34:40.378Z,66.30
2019-04-04T09:37:10.580Z,66.70
2019-04-04T09:39:40.652Z,66.60
2019-04-04T09:42:11.257Z,66.40
2019-04-04T09:44:41.557Z,65.60
2019-04-04T09:47:11.507Z,65.30
2019-04-04T09:49:41.208Z,65.30
2019-04-04T09:52:14.185Z,64.40
2019-04-04T09:54:43.887Z,62.90
2019-04-04T09:57:14.324Z,63.50
2019-04-04T09:59:48.436Z,63.10
2019-04-04T10:02:18.886Z,63.30
2019-04-04T10:04:47.846Z,63.50
2019-04-04T10:07:18.067Z,63.10
2019-04-04T10:09:51.337Z,61.70
2019-04-04T10:12:21.998Z,63.50
2019-04-04T10:14:51.275Z,64.40
2019-04-04T10:17:21.774Z,63.50
2019-04-04T10:22:42.667Z,69.20
2019-04-04T10:25:14.291Z,73.20
2019-04-04T10:30:32.925Z,77.60
2019-04-04T10:33:42.095Z,79.50
2019-04-04T10:36:18.392Z,77.70
2019-04-04T10:38:54.559Z,77.30
2019-04-04T10:41:35.530Z,74.50
2019-04-04T10:44:04.458Z,73.00
2019-04-04T10:46:35.554Z,72.30
2019-04-04T10:49:04.946Z,71.30
2019-04-04T10:51:35.319Z,68.50
2019-04-04T10:54:06.187Z,69.00
2019-04-04T10:56:35.084Z,66.80
2019-04-04T10:59:07.478Z,64.00
2019-04-04T11:01:36.376Z,62.90
2019-04-04T11:04:07.817Z,61.50
2019-04-04T11:06:42.484Z,59.50
2019-04-04T11:09:13.631Z,58.30
2019-04-04T11:11:45.895Z,57.70
2019-04-04T11:14:20.134Z,57.00
2019-04-04T11:16:52.896Z,56.10
2019-04-04T11:19:31.196Z,55.30
2019-04-04T11:21:52.728Z,54.60
2019-04-04T11:24:22.407Z,50.60
2019-04-04T11:27:50.117Z,51.20
2019-04-04T11:29:50.539Z,50.70
2019-04-04T11:32:21.006Z,51.70
2019-04-04T11:34:53.800Z,50.00
2019-04-04T11:37:31.662Z,51.00
2019-04-04T11:40:18.217Z,51.40
2019-04-04T11:43:01.677Z,51.60
2019-04-04T11:45:34.942Z,51.70
2019-04-04T11:48:13.623Z,52.40
2019-04-04T11:50:48.220Z,53.40
2019-04-04T11:53:25.913Z,53.30
2019-04-04T11:56:00.337Z,53.40
2019-04-04T11:58:38.341Z,52.10
2019-04-04T12:01:26.853Z,56.30
2019-04-04T12:04:01.493Z,57.30
2019-04-04T12:06:44.305Z,59.40
2019-04-04T12:09:19.648Z,58.50
2019-04-04T12:14:51.077Z,53.90
2019-04-04T12:17:33.809Z,52.40
2019-04-04T12:20:09.140Z,51.70
2019-04-04T12:22:39.934Z,51.70
2019-04-04T12:25:12.384Z,52.80
2019-04-04T12:27:45.151Z,53.50
2019-04-04T12:30:24.989Z,53.40
2019-04-04T12:32:57.591Z,53.80
2019-04-04T12:35:46.117Z,52.80
2019-04-04T12:38:20.583Z,52.20
2019-04-04T12:40:57.329Z,51.20
2019-04-04T13:51:11.359Z,56.10
2019-04-04T13:57:30.974Z,54.40
2019-04-04T14:17:23.070Z,55.50
2019-04-04T14:23:00.904Z,56.50
2019-04-04T14:28:07.447Z,57.80
2019-04-04T14:30:41.082Z,57.00
2019-04-04T14:33:25.146Z,56.20
2019-04-04T14:36:09.475Z,55.60
2019-04-04T15:22:31.750Z,69.80
